Terminal Aerodrome Forecast
Issued by NWS Wakefield, VA

Home | Current Version | Previous Version | Text Only | Print | Product List | Glossary On
Versions: 1 2 3 4 5 6 7 8 9 10 11 12 13 14 15 16 17
000
FTUS41 KAKQ 301735
TAFSBY
TAF
KSBY 301735Z 3018/3118 11007KT P6SM BKN070
     FM311000 13011KT P6SM SHRA OVC030
     FM311300 13014G22KT 3SM SHRA OVC015
     FM311600 14016G25KT 3SM SHRA OVC008=

USA.gov is the U.S. government's official web portal to all federal, state and local government web resources and services.